createdAt,value
2023-02-11T00:00:41.105Z,81.50
2023-02-11T00:02:47.722Z,81.05
2023-02-11T00:04:51.048Z,81.34
2023-02-11T00:06:56.209Z,80.38
2023-02-11T00:08:59.575Z,80.64
2023-02-11T00:11:02.719Z,80.12
2023-02-11T00:13:05.737Z,80.22
2023-02-11T00:15:09.767Z,80.31
2023-02-11T00:17:12.814Z,80.81
2023-02-11T00:19:15.964Z,81.03
2023-02-11T00:21:21.303Z,80.95
2023-02-11T00:23:25.759Z,80.90
2023-02-11T00:25:28.918Z,81.26
2023-02-11T00:27:32.074Z,81.81
2023-02-11T00:29:35.382Z,81.77
2023-02-11T00:31:39.779Z,81.49
2023-02-11T00:33:43.437Z,81.53
2023-02-11T00:35:46.658Z,81.50
2023-02-11T00:37:49.732Z,81.89
2023-02-11T00:39:54.247Z,81.57
2023-02-11T00:41:57.424Z,81.73
2023-02-11T00:44:00.679Z,81.84
2023-02-11T00:46:04.158Z,81.95
2023-02-11T00:48:07.550Z,81.96
2023-02-11T00:50:10.726Z,81.96
2023-02-11T00:52:13.790Z,82.37
2023-02-11T00:54:16.845Z,82.02
2023-02-11T00:56:21.402Z,81.94
2023-02-11T00:58:25.433Z,81.62
2023-02-11T01:00:28.581Z,81.65
2023-02-11T01:02:31.638Z,81.25
2023-02-11T01:04:34.764Z,81.00
2023-02-11T01:06:37.874Z,81.12
2023-02-11T01:08:41.889Z,81.62
2023-02-11T01:10:45.009Z,81.71
2023-02-11T01:12:49.464Z,81.73
2023-02-11T01:14:52.510Z,81.97
2023-02-11T01:16:55.847Z,82.12
2023-02-11T01:18:59.524Z,82.20
2023-02-11T01:21:02.583Z,81.81
2023-02-11T01:23:05.863Z,81.59
2023-02-11T01:25:09.386Z,81.55
2023-02-11T01:27:12.453Z,81.64
2023-02-11T01:29:16.901Z,81.88
2023-02-11T01:31:19.901Z,81.86
2023-02-11T01:33:23.518Z,82.34
2023-02-11T01:35:26.575Z,82.27
2023-02-11T01:37:29.586Z,82.33
2023-02-11T01:39:34.989Z,82.50
2023-02-11T01:41:38.126Z,82.17
2023-02-11T01:43:43.143Z,82.20
2023-02-11T01:46:08.031Z,81.87
2023-02-11T01:48:13.762Z,82.03
2023-02-11T01:50:17.069Z,82.20
2023-02-11T01:52:23.817Z,82.19
2023-02-11T01:54:47.642Z,82.43
2023-02-11T01:57:11.831Z,82.63
2023-02-11T01:59:19.921Z,82.88
2023-02-11T02:01:26.169Z,82.85
2023-02-11T02:03:30.054Z,83.18
2023-02-11T02:05:36.186Z,82.75
2023-02-11T02:07:44.070Z,82.61
2023-02-11T02:09:51.173Z,82.80
2023-02-11T02:11:54.465Z,83.13
2023-02-11T02:13:57.549Z,83.45
2023-02-11T02:16:02.202Z,84.01
2023-02-11T02:18:21.380Z,83.67
2023-02-11T02:21:01.009Z,83.80
2023-02-11T02:23:26.708Z,83.79
2023-02-11T02:25:42.418Z,83.85
2023-02-11T02:27:53.336Z,84.12
2023-02-11T02:30:18.080Z,84.23
2023-02-11T02:32:31.471Z,83.86
2023-02-11T02:34:39.115Z,83.92
2023-02-11T02:36:45.207Z,83.58
2023-02-11T02:38:54.349Z,83.47
2023-02-11T02:41:00.814Z,83.00
2023-02-11T02:43:04.534Z,83.31
2023-02-11T02:45:09.196Z,82.21
2023-02-11T02:47:12.164Z,83.08
2023-02-11T02:49:18.381Z,82.96
2023-02-11T02:51:32.738Z,83.23
2023-02-11T02:53:45.313Z,82.48
2023-02-11T02:56:01.571Z,82.98
2023-02-11T02:58:20.391Z,83.36
2023-02-11T03:00:26.849Z,83.43
2023-02-11T03:02:32.839Z,84.20
2023-02-11T03:04:41.611Z,84.15
2023-02-11T03:06:49.874Z,84.16
2023-02-11T03:08:58.769Z,84.42
2023-02-11T03:11:02.945Z,84.25
2023-02-11T03:13:06.505Z,83.92
2023-02-11T03:15:10.600Z,83.58
2023-02-11T03:17:15.501Z,83.73
2023-02-11T03:19:21.127Z,83.70
2023-02-11T03:21:26.081Z,84.15
2023-02-11T03:23:30.716Z,83.92
2023-02-11T03:25:37.456Z,84.17
2023-02-11T03:27:44.918Z,84.07
2023-02-11T03:29:54.220Z,83.52
2023-02-11T03:32:02.280Z,83.82
2023-02-11T03:34:09.724Z,83.67
2023-02-11T03:36:17.718Z,84.10
2023-02-11T03:38:23.887Z,84.69
2023-02-11T03:40:28.977Z,84.74
2023-02-11T03:42:35.656Z,84.68
2023-02-11T03:44:42.063Z,85.02
2023-02-11T03:46:49.540Z,84.33
2023-02-11T03:48:53.740Z,84.04
2023-02-11T03:50:58.422Z,84.44
2023-02-11T03:53:03.055Z,84.63
2023-02-11T03:55:11.120Z,84.23
2023-02-11T03:57:14.137Z,84.27
2023-02-11T03:59:17.169Z,84.32
2023-02-11T04:01:20.237Z,84.58
2023-02-11T04:03:23.338Z,84.05
2023-02-11T04:05:26.392Z,84.08
2023-02-11T04:07:29.626Z,84.21
2023-02-11T04:09:33.055Z,84.14
2023-02-11T04:11:37.644Z,84.18
2023-02-11T04:13:40.728Z,83.92
2023-02-11T04:15:43.828Z,84.30
2023-02-11T04:17:46.933Z,83.99
2023-02-11T04:19:50.044Z,84.01
2023-02-11T04:21:53.073Z,83.96
2023-02-11T04:23:56.135Z,84.11
2023-02-11T04:25:59.797Z,83.91
2023-02-11T04:28:04.279Z,84.67
2023-02-11T04:30:08.779Z,84.00
2023-02-11T04:32:12.364Z,84.53
2023-02-11T04:34:15.513Z,84.12
2023-02-11T04:36:18.586Z,83.78
2023-02-11T04:38:24.083Z,84.16
2023-02-11T04:40:27.178Z,84.18
2023-02-11T04:42:30.198Z,84.11
2023-02-11T04:44:34.672Z,83.71
2023-02-11T04:46:37.803Z,83.82
2023-02-11T04:48:40.899Z,83.81
2023-02-11T04:50:43.992Z,83.38
2023-02-11T04:52:46.930Z,84.29
2023-02-11T04:54:50.053Z,84.26
2023-02-11T04:56:53.081Z,84.09
2023-02-11T04:58:56.083Z,83.95
2023-02-11T05:01:08.184Z,83.83
2023-02-11T05:03:11.380Z,84.45
2023-02-11T05:05:14.459Z,84.32
2023-02-11T05:07:17.472Z,84.45
2023-02-11T05:09:20.557Z,83.91
2023-02-11T05:11:25.488Z,84.30
2023-02-11T05:13:28.606Z,84.15
2023-02-11T05:15:31.744Z,83.60
2023-02-11T05:17:38.389Z,83.71
2023-02-11T05:19:42.715Z,83.43
2023-02-11T05:22:01.347Z,83.75
2023-02-11T05:24:05.567Z,82.86
2023-02-11T05:26:09.141Z,83.68
2023-02-11T05:28:12.196Z,84.13
2023-02-11T05:30:15.576Z,84.07
2023-02-11T05:32:18.660Z,84.13
2023-02-11T05:34:23.097Z,83.87
2023-02-11T05:36:26.113Z,84.53
2023-02-11T05:38:29.388Z,84.77
2023-02-11T05:40:32.476Z,84.59
2023-02-11T05:42:35.537Z,84.44
2023-02-11T05:44:38.838Z,84.43
2023-02-11T05:46:41.961Z,84.87
2023-02-11T05:48:45.120Z,84.42
2023-02-11T05:50:49.514Z,83.63
2023-02-11T05:52:52.525Z,83.85
2023-02-11T05:54:55.811Z,84.20
2023-02-11T05:56:58.856Z,84.48
2023-02-11T05:59:01.902Z,84.01
2023-02-11T06:01:05.188Z,84.30
2023-02-11T06:03:08.231Z,85.00
2023-02-11T06:05:11.354Z,84.75
2023-02-11T06:07:15.773Z,84.20
2023-02-11T06:09:18.725Z,84.85
2023-02-11T06:11:21.721Z,84.53
2023-02-11T06:13:24.812Z,84.69
2023-02-11T06:15:29.864Z,84.53
2023-02-11T06:17:33.782Z,83.84
2023-02-11T06:19:37.072Z,84.22
2023-02-11T06:21:44.199Z,84.51
2023-02-11T06:23:49.133Z,84.64
2023-02-11T06:25:52.644Z,84.56
2023-02-11T06:27:56.239Z,84.47
2023-02-11T06:29:59.448Z,84.53
2023-02-11T06:32:02.681Z,83.92
2023-02-11T06:34:06.102Z,83.81
2023-02-11T06:36:14.646Z,84.33
2023-02-11T06:38:17.705Z,84.91
2023-02-11T06:40:22.130Z,84.84
2023-02-11T06:42:25.206Z,84.63
2023-02-11T06:44:28.336Z,85.40
2023-02-11T06:46:31.476Z,85.08
2023-02-11T06:48:34.863Z,84.77
2023-02-11T06:50:38.010Z,84.69
2023-02-11T06:52:41.537Z,84.60
2023-02-11T06:54:44.664Z,84.63
2023-02-11T06:56:49.205Z,83.95
2023-02-11T06:58:54.669Z,83.93
2023-02-11T07:00:57.861Z,83.64
2023-02-11T07:03:01.010Z,83.81
2023-02-11T07:05:04.285Z,84.40
2023-02-11T07:07:07.446Z,83.95
2023-02-11T07:09:10.721Z,84.70
2023-02-11T07:11:16.391Z,84.50
2023-02-11T07:13:20.863Z,85.07
2023-02-11T07:15:23.886Z,85.11
2023-02-11T07:17:26.962Z,84.72
2023-02-11T07:19:29.973Z,84.66
2023-02-11T07:21:33.146Z,85.09
2023-02-11T07:23:37.233Z,84.53
2023-02-11T07:25:40.352Z,84.90
2023-02-11T07:27:43.426Z,84.64
2023-02-11T07:29:48.654Z,84.19
2023-02-11T07:31:51.768Z,84.88
2023-02-11T07:33:55.912Z,84.63
2023-02-11T07:36:01.380Z,84.72
2023-02-11T07:38:04.386Z,85.15
2023-02-11T07:40:08.299Z,85.16
2023-02-11T07:42:11.326Z,84.81
2023-02-11T07:44:14.382Z,84.79
2023-02-11T07:46:20.288Z,84.40
2023-02-11T07:48:23.332Z,84.52
2023-02-11T07:50:26.475Z,84.46
2023-02-11T07:52:30.780Z,83.93
2023-02-11T07:54:33.832Z,83.64
2023-02-11T07:56:37.003Z,82.82
2023-02-11T07:58:42.105Z,82.47
2023-02-11T08:00:45.798Z,83.75
2023-02-11T08:02:50.369Z,83.52
2023-02-11T08:04:53.415Z,83.40
2023-02-11T08:06:58.956Z,82.92
2023-02-11T08:09:05.769Z,83.14
2023-02-11T08:11:09.420Z,82.73
2023-02-11T08:13:12.538Z,83.35
2023-02-11T08:15:17.191Z,82.93
2023-02-11T08:17:20.346Z,82.77
2023-02-11T08:19:24.816Z,83.14
2023-02-11T08:21:28.433Z,82.55
2023-02-11T08:23:31.532Z,82.97
2023-02-11T08:25:34.603Z,82.57
2023-02-11T08:27:37.729Z,82.09
2023-02-11T08:29:40.838Z,82.46
2023-02-11T08:31:46.606Z,83.07
2023-02-11T08:33:50.126Z,83.19
2023-02-11T08:35:54.864Z,80.59
2023-02-11T08:37:58.054Z,80.88
2023-02-11T08:40:01.366Z,81.28
2023-02-11T08:42:04.837Z,80.62
2023-02-11T08:44:08.019Z,79.58
2023-02-11T08:46:11.721Z,78.98
2023-02-11T08:48:14.872Z,79.41
2023-02-11T08:50:18.135Z,79.29
2023-02-11T08:52:22.684Z,78.86
2023-02-11T08:54:25.933Z,79.16
2023-02-11T08:56:31.384Z,78.05
2023-02-11T08:58:34.608Z,78.09
2023-02-11T09:00:37.831Z,77.75
2023-02-11T09:02:41.006Z,77.89
2023-02-11T09:04:44.104Z,78.52
2023-02-11T09:06:47.343Z,77.66
2023-02-11T09:08:53.737Z,77.88
2023-02-11T09:10:57.693Z,78.81
2023-02-11T09:13:01.023Z,77.70
2023-02-11T09:15:04.038Z,76.63
2023-02-11T09:17:07.183Z,76.54
2023-02-11T09:19:10.680Z,75.75
2023-02-11T09:21:14.480Z,75.48
2023-02-11T09:23:18.635Z,74.01
2023-02-11T09:25:22.950Z,73.68
2023-02-11T09:27:25.996Z,74.91
2023-02-11T09:29:29.161Z,73.95
2023-02-11T09:31:33.668Z,72.79
2023-02-11T09:33:37.047Z,71.67
2023-02-11T09:35:41.083Z,73.08
2023-02-11T09:37:44.044Z,72.37
2023-02-11T09:39:47.200Z,72.47
2023-02-11T09:42:08.438Z,72.53
2023-02-11T09:44:19.580Z,72.90
2023-02-11T09:46:23.063Z,72.77
2023-02-11T09:48:26.247Z,73.49
2023-02-11T09:50:32.262Z,72.56
2023-02-11T09:52:39.277Z,73.14
2023-02-11T09:54:50.737Z,72.67
2023-02-11T09:56:53.895Z,71.94
2023-02-11T09:58:58.357Z,71.27
2023-02-11T10:01:06.816Z,71.47
2023-02-11T10:03:21.632Z,71.71
2023-02-11T10:05:34.903Z,70.77
2023-02-11T10:07:41.855Z,70.64
2023-02-11T10:10:01.905Z,70.25
2023-02-11T10:12:16.970Z,71.80
2023-02-11T10:14:30.243Z,71.18
2023-02-11T10:16:43.184Z,69.48
2023-02-11T10:19:05.290Z,67.96
2023-02-11T10:21:16.566Z,68.97
2023-02-11T10:23:22.574Z,69.35
2023-02-11T10:25:27.952Z,70.76
2023-02-11T10:27:35.055Z,68.88
2023-02-11T10:29:42.064Z,69.46
2023-02-11T10:31:46.227Z,68.73
2023-02-11T10:33:54.797Z,69.41
2023-02-11T10:35:58.091Z,70.42
2023-02-11T10:38:01.720Z,68.79
2023-02-11T10:40:05.484Z,68.75
2023-02-11T10:42:12.085Z,69.58
2023-02-11T10:44:24.801Z,69.27
2023-02-11T10:46:33.585Z,70.46
2023-02-11T10:48:40.290Z,70.03
2023-02-11T10:50:43.482Z,69.53
2023-02-11T10:52:46.570Z,69.55
2023-02-11T10:55:01.424Z,69.72
2023-02-11T10:57:04.847Z,69.93
2023-02-11T10:59:14.841Z,69.36
2023-02-11T11:01:24.376Z,69.94
2023-02-11T11:03:33.385Z,69.53
2023-02-11T11:05:38.446Z,69.22
2023-02-11T11:07:53.138Z,70.00
2023-02-11T11:09:59.678Z,70.57
2023-02-11T11:12:02.809Z,70.10
2023-02-11T11:14:06.046Z,70.23
2023-02-11T11:16:22.302Z,69.16
2023-02-11T11:18:25.440Z,68.99
2023-02-11T11:20:35.353Z,68.76
2023-02-11T11:22:39.219Z,68.53
2023-02-11T11:24:46.731Z,68.53
2023-02-11T11:26:52.845Z,68.94
2023-02-11T11:28:59.095Z,68.61
2023-02-11T11:31:02.509Z,68.24
2023-02-11T11:33:05.767Z,68.43
2023-02-11T11:35:23.129Z,67.71
2023-02-11T11:37:29.418Z,68.23
2023-02-11T11:39:34.321Z,68.16
2023-02-11T11:41:37.479Z,67.58
2023-02-11T11:43:40.715Z,67.91
2023-02-11T11:45:55.542Z,66.91
2023-02-11T11:48:01.109Z,66.99
2023-02-11T11:50:17.705Z,66.98
2023-02-11T11:52:42.939Z,66.59
2023-02-11T11:54:50.463Z,66.04
2023-02-11T11:56:57.265Z,67.68
2023-02-11T11:59:01.999Z,67.35
2023-02-11T12:01:16.470Z,67.81
2023-02-11T12:03:59.944Z,68.40
2023-02-11T12:06:14.574Z,68.63
2023-02-11T12:08:24.990Z,68.01
2023-02-11T12:10:42.413Z,68.87
2023-02-11T12:12:50.289Z,68.27
2023-02-11T12:15:00.184Z,68.77
2023-02-11T12:17:07.818Z,69.00
2023-02-11T12:19:26.625Z,69.42
2023-02-11T12:21:36.154Z,67.35
2023-02-11T12:23:47.603Z,67.15
2023-02-11T12:25:55.575Z,67.85
2023-02-11T12:28:18.087Z,67.85
2023-02-11T12:30:35.594Z,68.50
2023-02-11T12:32:46.206Z,68.72
2023-02-11T12:35:18.551Z,68.74
2023-02-11T12:37:31.468Z,68.75
2023-02-11T12:39:45.478Z,68.87
2023-02-11T12:42:21.343Z,69.42
2023-02-11T12:44:30.804Z,69.39
2023-02-11T12:46:39.106Z,69.74
2023-02-11T12:48:57.752Z,69.97
2023-02-11T12:51:06.623Z,70.56
2023-02-11T12:53:23.777Z,69.76
2023-02-11T12:55:29.705Z,69.77
2023-02-11T12:57:34.573Z,70.19
2023-02-11T12:59:45.681Z,70.14
2023-02-11T13:01:50.125Z,69.60
2023-02-11T13:03:56.036Z,70.23
2023-02-11T13:06:02.101Z,70.32
2023-02-11T13:08:10.196Z,70.30
2023-02-11T13:10:23.667Z,70.59
2023-02-11T13:12:46.294Z,70.88
2023-02-11T13:14:51.210Z,70.54
2023-02-11T13:16:54.697Z,70.67
2023-02-11T13:19:03.787Z,70.31
2023-02-11T13:21:21.035Z,70.46
2023-02-11T13:23:29.969Z,69.80
2023-02-11T13:25:37.874Z,70.29
2023-02-11T13:27:45.425Z,70.30
2023-02-11T13:30:15.840Z,69.57
2023-02-11T13:32:18.967Z,70.58
2023-02-11T13:34:25.969Z,70.28
2023-02-11T13:36:30.269Z,69.17
2023-02-11T13:38:33.957Z,70.25
2023-02-11T13:40:38.554Z,70.71
2023-02-11T13:42:51.654Z,69.74
2023-02-11T13:44:55.326Z,70.30
2023-02-11T13:47:01.384Z,69.05
2023-02-11T13:49:04.558Z,69.53
2023-02-11T13:51:09.517Z,67.64
2023-02-11T13:53:15.061Z,68.82
2023-02-11T13:55:23.422Z,68.93
2023-02-11T13:57:36.449Z,69.15
2023-02-11T13:59:48.477Z,68.75
2023-02-11T14:02:23.841Z,67.09
2023-02-11T14:04:47.373Z,68.28
2023-02-11T14:07:42.960Z,68.74
2023-02-11T14:09:46.135Z,68.69
2023-02-11T14:11:51.377Z,68.15
2023-02-11T14:14:15.425Z,68.49
2023-02-11T14:16:36.469Z,69.13
2023-02-11T14:19:01.857Z,68.43
2023-02-11T14:21:13.150Z,68.52
2023-02-11T14:23:25.720Z,68.42
2023-02-11T14:25:28.971Z,67.77
2023-02-11T14:27:37.565Z,67.67
2023-02-11T14:29:45.338Z,68.09
2023-02-11T14:31:56.191Z,67.61
2023-02-11T14:34:07.743Z,68.39
2023-02-11T14:36:21.278Z,67.70
2023-02-11T14:38:29.492Z,67.78
2023-02-11T14:40:35.269Z,67.88
2023-02-11T14:42:39.496Z,67.85
2023-02-11T14:44:43.062Z,67.68
2023-02-11T14:46:47.214Z,67.56
2023-02-11T14:48:53.793Z,68.09
2023-02-11T14:51:01.881Z,67.88
2023-02-11T14:53:06.281Z,67.78
2023-02-11T14:55:18.066Z,68.51
2023-02-11T14:57:21.973Z,67.81
2023-02-11T14:59:25.010Z,68.14
2023-02-11T15:01:31.832Z,69.11
2023-02-11T15:03:36.974Z,68.13
2023-02-11T15:05:41.587Z,67.84
2023-02-11T15:07:46.817Z,68.71
2023-02-11T15:09:52.046Z,68.16
2023-02-11T15:11:55.579Z,67.72
2023-02-11T15:14:01.183Z,67.78
2023-02-11T15:16:08.089Z,68.58
2023-02-11T15:18:21.388Z,68.33
2023-02-11T15:20:28.121Z,68.60
2023-02-11T15:22:36.538Z,68.12
2023-02-11T15:24:40.593Z,68.46
2023-02-11T15:26:43.701Z,69.35
2023-02-11T15:28:51.928Z,69.55
2023-02-11T15:30:59.615Z,69.08
2023-02-11T15:33:05.864Z,70.04
2023-02-11T15:35:13.678Z,69.52
2023-02-11T15:37:21.803Z,69.50
2023-02-11T15:39:34.277Z,69.30
2023-02-11T15:41:38.785Z,69.29
2023-02-11T15:43:43.470Z,70.10
2023-02-11T15:45:56.160Z,69.17
2023-02-11T15:48:01.373Z,69.83
2023-02-11T15:50:04.665Z,70.10
2023-02-11T15:52:08.945Z,69.77
2023-02-11T15:54:18.458Z,70.15
2023-02-11T15:56:25.795Z,70.38
2023-02-11T15:58:28.989Z,70.47
2023-02-11T16:00:36.280Z,70.18
2023-02-11T16:02:45.132Z,71.27
2023-02-11T16:04:53.415Z,70.82
2023-02-11T16:06:57.126Z,70.17
2023-02-11T16:09:02.448Z,70.22
2023-02-11T16:11:09.101Z,69.94
2023-02-11T16:13:20.816Z,70.74
2023-02-11T16:15:43.303Z,70.81
2023-02-11T16:17:46.481Z,71.27
2023-02-11T16:19:51.193Z,71.15
2023-02-11T16:21:54.907Z,71.88
2023-02-11T16:23:58.785Z,71.54
2023-02-11T16:26:08.502Z,71.85
2023-02-11T16:28:15.223Z,72.03
2023-02-11T16:30:30.317Z,71.36
2023-02-11T16:32:33.475Z,72.22
2023-02-11T16:34:37.223Z,72.25
2023-02-11T16:36:40.420Z,71.86
2023-02-11T16:38:43.901Z,71.73
2023-02-11T16:40:49.357Z,72.73
2023-02-11T16:42:53.550Z,72.99
2023-02-11T16:44:56.744Z,72.20
2023-02-11T16:47:03.203Z,72.81
2023-02-11T16:49:11.602Z,72.28
2023-02-11T16:51:14.687Z,71.90
2023-02-11T16:53:22.675Z,72.62
2023-02-11T16:55:25.816Z,72.69
2023-02-11T16:57:30.440Z,72.15
2023-02-11T16:59:33.732Z,72.90
2023-02-11T17:01:37.489Z,72.65
2023-02-11T17:03:43.630Z,72.77
2023-02-11T17:05:55.326Z,72.73
2023-02-11T17:08:00.888Z,72.65
2023-02-11T17:10:04.067Z,73.14
2023-02-11T17:12:07.872Z,73.47
2023-02-11T17:14:11.152Z,73.41
2023-02-11T17:16:20.014Z,73.68
2023-02-11T17:18:23.270Z,73.68
2023-02-11T17:20:27.916Z,73.58
2023-02-11T17:22:31.075Z,73.85
2023-02-11T17:24:34.197Z,73.60
2023-02-11T17:26:37.344Z,73.58
2023-02-11T17:28:40.496Z,73.78
2023-02-11T17:30:44.182Z,74.23
2023-02-11T17:32:47.420Z,74.54
2023-02-11T17:34:50.555Z,74.04
2023-02-11T17:36:55.090Z,74.31
2023-02-11T17:38:58.874Z,73.84
2023-02-11T17:41:03.286Z,74.28
2023-02-11T17:43:06.686Z,74.13
2023-02-11T17:45:10.834Z,73.69
2023-02-11T17:47:14.056Z,73.71
2023-02-11T17:49:17.632Z,74.41
2023-02-11T17:51:24.778Z,74.71
2023-02-11T17:53:29.434Z,74.10
2023-02-11T17:55:34.134Z,74.46
2023-02-11T17:57:37.420Z,74.16
2023-02-11T17:59:41.002Z,74.19
2023-02-11T18:01:44.673Z,74.81
2023-02-11T18:03:47.975Z,74.53
2023-02-11T18:05:51.484Z,74.76
2023-02-11T18:07:55.869Z,74.81
2023-02-11T18:10:00.330Z,74.17
2023-02-11T18:12:03.490Z,74.56
2023-02-11T18:14:07.909Z,74.44
2023-02-11T18:16:15.546Z,74.79
2023-02-11T18:18:18.845Z,75.25
2023-02-11T18:20:22.175Z,74.93
2023-02-11T18:22:25.916Z,74.92
2023-02-11T18:24:28.994Z,74.48
2023-02-11T18:26:33.551Z,73.91
2023-02-11T18:28:36.725Z,75.03
2023-02-11T18:30:39.976Z,75.49
2023-02-11T18:32:43.147Z,76.45
2023-02-11T18:34:46.272Z,76.04
2023-02-11T18:36:49.900Z,77.08
2023-02-11T18:38:54.309Z,77.10
2023-02-11T18:40:58.749Z,77.49
2023-02-11T18:43:03.324Z,77.04
2023-02-11T18:45:09.377Z,76.74
2023-02-11T18:47:12.588Z,77.36
2023-02-11T18:49:16.185Z,77.34
2023-02-11T18:51:19.697Z,76.42
2023-02-11T18:53:23.285Z,76.86
2023-02-11T18:55:26.518Z,76.51
2023-02-11T18:57:29.717Z,77.16
2023-02-11T18:59:34.574Z,77.19
2023-02-11T19:01:40.005Z,76.49
2023-02-11T19:03:43.426Z,77.43
2023-02-11T19:05:48.335Z,76.79
2023-02-11T19:07:51.548Z,76.53
2023-02-11T19:09:54.964Z,76.48
2023-02-11T19:11:59.839Z,76.47
2023-02-11T19:14:10.129Z,76.63
2023-02-11T19:16:16.827Z,76.46
2023-02-11T19:18:19.953Z,76.20
2023-02-11T19:20:22.978Z,78.04
2023-02-11T19:22:26.080Z,77.58
2023-02-11T19:24:30.409Z,77.84
2023-02-11T19:26:33.530Z,76.84
2023-02-11T19:28:37.476Z,77.23
2023-02-11T19:30:40.591Z,78.35
2023-02-11T19:32:45.148Z,77.91
2023-02-11T19:34:48.471Z,77.26
2023-02-11T19:36:51.760Z,77.60
2023-02-11T19:38:55.355Z,77.53
2023-02-11T19:40:58.811Z,77.88
2023-02-11T19:43:02.024Z,79.09
2023-02-11T19:45:07.332Z,78.23
2023-02-11T19:47:12.604Z,78.23
2023-02-11T19:49:22.820Z,78.35
2023-02-11T19:51:26.011Z,77.51
2023-02-11T19:53:29.150Z,79.20
2023-02-11T19:55:32.425Z,78.85
2023-02-11T19:57:35.596Z,78.55
2023-02-11T19:59:38.788Z,79.68
2023-02-11T20:01:42.502Z,78.89
2023-02-11T20:03:47.319Z,79.02
2023-02-11T20:05:51.992Z,78.28
2023-02-11T20:07:55.388Z,78.10
2023-02-11T20:09:58.773Z,78.96
2023-02-11T20:12:01.946Z,77.82
2023-02-11T20:14:06.727Z,77.28
2023-02-11T20:16:12.432Z,78.97
2023-02-11T20:18:15.618Z,79.00
2023-02-11T20:20:19.102Z,79.27
2023-02-11T20:22:23.522Z,79.06
2023-02-11T20:24:27.198Z,78.56
2023-02-11T20:26:31.571Z,78.55
2023-02-11T20:28:34.721Z,78.27
2023-02-11T20:30:39.150Z,78.69
2023-02-11T20:32:42.270Z,79.51
2023-02-11T20:34:45.427Z,79.27
2023-02-11T20:36:51.962Z,78.19
2023-02-11T20:38:56.834Z,79.85
2023-02-11T20:41:04.127Z,79.89
2023-02-11T20:43:07.324Z,78.59
2023-02-11T20:45:10.756Z,80.16
2023-02-11T20:47:13.887Z,79.88
2023-02-11T20:49:18.913Z,79.19
2023-02-11T20:51:24.796Z,79.77
2023-02-11T20:53:27.851Z,79.59
2023-02-11T20:55:32.313Z,80.49
2023-02-11T20:57:35.612Z,80.94
2023-02-11T20:59:38.769Z,80.10
2023-02-11T21:01:43.615Z,79.41
2023-02-11T21:03:50.844Z,80.26
2023-02-11T21:05:59.243Z,81.37
2023-02-11T21:08:02.260Z,81.13
2023-02-11T21:10:06.129Z,80.11
2023-02-11T21:12:10.611Z,80.55
2023-02-11T21:14:16.046Z,80.49
2023-02-11T21:16:21.357Z,80.05
2023-02-11T21:18:25.051Z,79.88
2023-02-11T21:20:28.089Z,81.63
2023-02-11T21:22:31.272Z,80.77
2023-02-11T21:24:34.393Z,81.57
2023-02-11T21:26:38.533Z,80.83
2023-02-11T21:28:43.033Z,80.66
2023-02-11T21:30:46.209Z,81.05
2023-02-11T21:32:49.339Z,81.75
2023-02-11T21:34:52.443Z,80.88
2023-02-11T21:36:55.561Z,80.51
2023-02-11T21:39:00.175Z,81.60
2023-02-11T21:41:06.994Z,81.72
2023-02-11T21:43:10.059Z,81.15
2023-02-11T21:45:14.579Z,81.37
2023-02-11T21:47:17.656Z,81.30
2023-02-11T21:49:21.427Z,81.01
2023-02-11T21:51:26.302Z,80.92
2023-02-11T21:53:29.378Z,80.69
2023-02-11T21:55:32.517Z,81.23
2023-02-11T21:57:35.662Z,82.77
2023-02-11T21:59:38.885Z,81.15
2023-02-11T22:01:43.359Z,81.45
2023-02-11T22:03:47.310Z,81.87
2023-02-11T22:05:50.400Z,81.11
2023-02-11T22:07:53.528Z,82.44
2023-02-11T22:09:56.599Z,81.17
2023-02-11T22:11:59.689Z,82.75
2023-02-11T22:14:02.701Z,82.71
2023-02-11T22:16:08.023Z,81.23
2023-02-11T22:18:12.660Z,82.20
2023-02-11T22:20:16.850Z,81.75
2023-02-11T22:22:19.925Z,81.95
2023-02-11T22:24:23.016Z,81.88
2023-02-11T22:26:27.765Z,82.26
2023-02-11T22:28:30.931Z,83.03
2023-02-11T22:30:34.194Z,82.84
2023-02-11T22:32:37.416Z,82.87
2023-02-11T22:34:41.866Z,83.50
2023-02-11T22:36:46.982Z,83.13
2023-02-11T22:38:50.360Z,83.10
2023-02-11T22:40:53.482Z,83.69
2023-02-11T22:42:56.651Z,82.80
2023-02-11T22:44:59.657Z,82.68
2023-02-11T22:47:02.654Z,83.22
2023-02-11T22:49:07.202Z,83.16
2023-02-11T22:51:13.376Z,83.17
2023-02-11T22:53:16.387Z,83.31
2023-02-11T22:55:19.519Z,82.29
2023-02-11T22:57:22.604Z,83.65
2023-02-11T22:59:25.744Z,83.94
2023-02-11T23:01:29.122Z,83.42
2023-02-11T23:03:32.868Z,83.27
2023-02-11T23:05:39.286Z,84.12
2023-02-11T23:07:43.652Z,83.90
2023-02-11T23:09:48.052Z,82.51
2023-02-11T23:11:54.357Z,82.42
2023-02-11T23:13:57.666Z,83.60
2023-02-11T23:16:00.747Z,83.62
2023-02-11T23:18:03.830Z,83.53
2023-02-11T23:20:08.019Z,82.69
2023-02-11T23:22:11.050Z,82.81
2023-02-11T23:24:16.080Z,83.74
2023-02-11T23:26:19.749Z,83.27
2023-02-11T23:28:23.002Z,83.51
2023-02-11T23:30:26.392Z,83.41
2023-02-11T23:32:29.496Z,83.86
2023-02-11T23:34:32.637Z,83.99
2023-02-11T23:36:35.886Z,83.69
2023-02-11T23:38:38.996Z,84.18
2023-02-11T23:40:43.701Z,83.56
2023-02-11T23:42:47.673Z,83.56
2023-02-11T23:44:50.782Z,84.03
2023-02-11T23:46:53.787Z,83.50
2023-02-11T23:48:56.865Z,83.88
2023-02-11T23:51:00.045Z,83.76
2023-02-11T23:53:03.119Z,84.47
2023-02-11T23:55:07.048Z,84.14
2023-02-11T23:57:11.576Z,83.83
2023-02-11T23:59:14.940Z,84.28
